createdAt,value
2022-12-05T00:01:27.061Z,15.75
2022-12-05T00:06:30.632Z,14.90
2022-12-05T00:11:35.501Z,15.43
2022-12-05T00:16:40.479Z,14.63
2022-12-05T00:21:43.431Z,14.52
2022-12-05T00:26:45.690Z,13.90
2022-12-05T00:31:48.630Z,14.60
2022-12-05T00:36:50.883Z,15.20
2022-12-05T00:41:52.898Z,14.38
2022-12-05T00:46:55.492Z,15.57
2022-12-05T00:51:57.461Z,14.75
2022-12-05T00:56:59.448Z,14.38
2022-12-05T01:02:01.541Z,14.77
2022-12-05T01:07:04.594Z,15.25
2022-12-05T01:12:06.999Z,15.70
2022-12-05T01:17:09.191Z,15.55
2022-12-05T01:22:11.355Z,15.75
2022-12-05T01:27:13.678Z,17.10
2022-12-05T01:32:15.930Z,16.42
2022-12-05T01:37:18.081Z,14.80
2022-12-05T01:42:25.911Z,13.18
2022-12-05T01:47:29.492Z,15.93
2022-12-05T01:52:38.244Z,14.10
2022-12-05T01:57:41.080Z,14.70
2022-12-05T02:02:56.559Z,14.00
2022-12-05T02:08:01.490Z,14.07
2022-12-05T02:13:20.180Z,15.10
2022-12-05T02:18:33.104Z,15.43
2022-12-05T02:23:52.843Z,13.98
2022-12-05T02:29:44.208Z,13.88
2022-12-05T02:34:59.031Z,13.35
2022-12-05T02:40:06.106Z,13.52
2022-12-05T02:45:10.266Z,13.15
2022-12-05T02:50:15.829Z,12.13
2022-12-05T02:55:19.450Z,9.85
2022-12-05T03:00:22.215Z,11.27
2022-12-05T03:05:45.883Z,10.50
2022-12-05T03:10:48.571Z,11.23
2022-12-05T03:15:55.648Z,10.55
2022-12-05T03:21:11.778Z,11.45
2022-12-05T03:26:14.842Z,12.43
2022-12-05T03:31:25.431Z,12.82
2022-12-05T03:36:35.275Z,12.35
2022-12-05T03:41:49.723Z,12.85
2022-12-05T03:47:01.138Z,12.32
2022-12-05T03:52:21.753Z,14.30
2022-12-05T03:57:35.240Z,13.77
2022-12-05T04:02:54.807Z,14.32
2022-12-05T04:08:03.939Z,13.73
2022-12-05T04:13:18.053Z,12.50
2022-12-05T04:18:20.914Z,14.52
2022-12-05T04:23:23.616Z,13.75
2022-12-05T04:28:29.745Z,14.02
2022-12-05T04:33:41.357Z,13.13
2022-12-05T04:38:51.800Z,13.18
2022-12-05T04:43:56.079Z,11.77
2022-12-05T04:49:02.063Z,12.60
2022-12-05T04:54:25.489Z,10.32
2022-12-05T04:59:27.535Z,10.48
2022-12-05T05:04:37.326Z,11.32
2022-12-05T05:09:40.254Z,10.68
2022-12-05T05:14:42.487Z,9.18
2022-12-05T05:19:44.823Z,9.82
2022-12-05T05:24:46.960Z,9.05
2022-12-05T05:29:48.990Z,8.48
2022-12-05T05:34:51.315Z,8.13
2022-12-05T05:39:53.177Z,8.60
2022-12-05T05:44:55.623Z,7.90
2022-12-05T05:50:03.397Z,7.05
2022-12-05T05:55:10.878Z,8.73
2022-12-05T06:00:13.660Z,9.35
2022-12-05T06:05:15.910Z,8.55
2022-12-05T06:10:18.200Z,9.05
2022-12-05T06:15:20.166Z,7.47
2022-12-05T06:20:22.410Z,7.88
2022-12-05T06:25:26.639Z,6.93
2022-12-05T06:30:29.513Z,7.05
2022-12-05T06:35:31.723Z,6.70
2022-12-05T06:40:34.618Z,7.03
2022-12-05T06:45:40.121Z,7.82
2022-12-05T06:50:49.214Z,6.65
2022-12-05T06:56:04.970Z,6.47
2022-12-05T07:01:47.692Z,7.68
2022-12-05T07:06:51.345Z,5.85
2022-12-05T07:11:55.292Z,7.25
2022-12-05T07:16:57.680Z,6.72
2022-12-05T07:22:00.198Z,5.93
2022-12-05T07:27:02.481Z,6.05
2022-12-05T07:32:05.040Z,8.57
2022-12-05T07:37:07.194Z,6.30
2022-12-05T07:42:09.310Z,7.25
2022-12-05T07:47:11.508Z,6.65
2022-12-05T07:52:13.628Z,6.13
2022-12-05T07:57:15.711Z,6.55
2022-12-05T08:02:23.756Z,9.02
2022-12-05T08:07:28.856Z,6.85
2022-12-05T08:12:30.946Z,7.18
2022-12-05T08:17:33.751Z,5.07
2022-12-05T08:22:36.139Z,5.05
2022-12-05T08:27:38.373Z,5.60
2022-12-05T08:32:42.334Z,5.10
2022-12-05T08:37:44.181Z,4.88
2022-12-05T08:42:46.468Z,4.75
2022-12-05T08:47:48.407Z,5.15
2022-12-05T08:52:50.444Z,4.80
2022-12-05T08:57:54.680Z,5.22
2022-12-05T09:02:56.722Z,5.10
2022-12-05T09:08:05.416Z,4.50
2022-12-05T09:13:07.383Z,4.47
2022-12-05T09:18:09.337Z,3.88
2022-12-05T09:23:15.891Z,4.70
2022-12-05T09:28:18.312Z,3.92
2022-12-05T09:33:20.269Z,4.00
2022-12-05T09:38:22.617Z,5.15
2022-12-05T09:43:49.077Z,4.55
2022-12-05T09:48:52.037Z,3.60
2022-12-05T09:53:55.291Z,3.80
2022-12-05T09:58:59.215Z,3.50
2022-12-05T10:04:13.476Z,6.40
2022-12-05T10:09:27.489Z,4.25
2022-12-05T10:14:38.035Z,3.88
2022-12-05T10:19:45.097Z,3.65
2022-12-05T10:24:54.626Z,4.90
2022-12-05T10:30:06.393Z,5.97
2022-12-05T10:35:19.266Z,4.90
2022-12-05T10:40:21.892Z,3.97
2022-12-05T10:45:24.387Z,4.07
2022-12-05T10:50:30.822Z,4.18
2022-12-05T10:55:59.972Z,4.32
2022-12-05T11:01:10.608Z,4.22
2022-12-05T11:06:31.203Z,4.05
2022-12-05T11:11:34.152Z,3.78
2022-12-05T11:16:39.554Z,4.00
2022-12-05T11:21:48.045Z,3.70
2022-12-05T11:26:51.067Z,4.00
2022-12-05T11:31:53.131Z,3.17
2022-12-05T11:36:58.608Z,3.55
2022-12-05T11:42:21.884Z,3.83
2022-12-05T11:48:00.795Z,2.80
2022-12-05T11:53:24.640Z,3.00
2022-12-05T11:59:06.004Z,3.60
2022-12-05T12:04:18.158Z,3.47
2022-12-05T12:09:55.779Z,3.50
2022-12-05T12:15:24.168Z,3.10
2022-12-05T12:20:47.523Z,3.55
2022-12-05T12:26:10.065Z,3.70
2022-12-05T12:31:36.520Z,3.10
2022-12-05T12:36:56.290Z,3.80
2022-12-05T12:42:14.395Z,2.70
2022-12-05T12:47:53.437Z,3.60
2022-12-05T12:53:07.437Z,3.30
2022-12-05T12:58:21.370Z,2.95
2022-12-05T13:03:29.023Z,2.78
2022-12-05T13:08:46.365Z,2.90
2022-12-05T13:13:58.060Z,6.03
2022-12-05T13:19:01.011Z,3.47
2022-12-05T13:24:03.805Z,3.22
2022-12-05T13:29:06.072Z,3.53
2022-12-05T13:34:29.286Z,5.47
2022-12-05T13:39:56.661Z,5.05
2022-12-05T13:45:05.287Z,4.10
2022-12-05T13:50:07.446Z,4.70
2022-12-05T13:55:15.268Z,3.28
2022-12-05T14:00:17.118Z,3.35
2022-12-05T14:05:21.848Z,3.53
2022-12-05T14:10:29.850Z,4.00
2022-12-05T14:15:34.434Z,3.33
2022-12-05T14:20:55.586Z,3.03
2022-12-05T14:26:07.000Z,3.28
2022-12-05T14:31:48.212Z,2.90
2022-12-05T14:37:21.611Z,5.68
2022-12-05T14:42:29.840Z,3.92
2022-12-05T14:47:33.759Z,4.00
2022-12-05T14:52:38.846Z,4.03
2022-12-05T15:02:49.123Z,4.57
2022-12-05T15:07:51.660Z,5.53
2022-12-05T15:13:12.619Z,5.00
2022-12-05T15:18:26.362Z,6.57
2022-12-05T15:23:50.416Z,4.90
2022-12-05T15:29:02.180Z,6.07
2022-12-05T15:34:12.574Z,7.15
2022-12-05T15:39:29.090Z,7.30
2022-12-05T15:44:38.068Z,13.55
2022-12-05T15:49:40.458Z,6.10
2022-12-05T15:54:44.655Z,7.40
2022-12-05T15:59:55.310Z,6.75
2022-12-05T16:04:59.686Z,7.03
2022-12-05T16:10:02.720Z,8.75
2022-12-05T16:15:12.726Z,7.38
2022-12-05T16:20:17.510Z,7.30
2022-12-05T16:30:27.130Z,9.50
2022-12-05T16:35:31.107Z,9.70
2022-12-05T16:40:33.387Z,9.93
2022-12-05T16:45:43.421Z,9.30
2022-12-05T16:50:45.328Z,12.27
2022-12-05T16:55:47.838Z,8.18
2022-12-05T17:00:50.543Z,10.80
2022-12-05T17:05:52.552Z,9.23
2022-12-05T17:10:54.677Z,8.95
2022-12-05T17:15:56.772Z,8.52
2022-12-05T17:21:00.740Z,8.95
2022-12-05T17:26:03.318Z,7.60
2022-12-05T17:31:06.335Z,8.25
2022-12-05T17:36:13.495Z,7.78
2022-12-05T17:41:18.189Z,8.27
2022-12-05T17:46:22.440Z,8.85
2022-12-05T17:51:25.002Z,8.30
2022-12-05T17:56:29.375Z,8.65
2022-12-05T18:01:32.113Z,9.57
2022-12-05T18:06:34.223Z,10.18
2022-12-05T18:11:36.211Z,8.65
2022-12-05T18:16:38.235Z,7.85
2022-12-05T18:21:40.653Z,8.60
2022-12-05T18:26:42.895Z,14.60
2022-12-05T18:31:45.198Z,7.22
2022-12-05T18:36:49.683Z,7.97
2022-12-05T18:41:52.880Z,8.57
2022-12-05T18:46:55.883Z,7.68
2022-12-05T18:51:58.220Z,7.97
2022-12-05T18:57:00.255Z,7.28
2022-12-05T19:02:05.285Z,8.73
2022-12-05T19:07:07.670Z,7.97
2022-12-05T19:12:10.854Z,8.13
2022-12-05T19:17:13.015Z,8.18
2022-12-05T19:22:15.076Z,7.22
2022-12-05T19:27:17.491Z,7.57
2022-12-05T19:32:19.863Z,9.07
2022-12-05T19:37:22.025Z,8.07
2022-12-05T19:42:25.703Z,8.05
2022-12-05T19:52:34.021Z,9.77
2022-12-05T19:57:37.159Z,8.05
2022-12-05T20:02:40.396Z,9.15
2022-12-05T20:07:42.711Z,8.13
2022-12-05T20:12:44.881Z,9.38
2022-12-05T20:17:52.871Z,9.70
2022-12-05T20:22:55.842Z,8.45
2022-12-05T20:27:57.963Z,8.73
2022-12-05T20:33:03.565Z,10.50
2022-12-05T20:38:07.586Z,10.43
2022-12-05T20:43:10.695Z,9.98
2022-12-05T20:48:12.941Z,8.63
2022-12-05T20:53:15.273Z,9.88
2022-12-05T20:58:17.351Z,9.80
2022-12-05T21:03:21.619Z,9.40
2022-12-05T21:08:25.553Z,8.88
2022-12-05T21:13:28.829Z,9.05
2022-12-05T21:18:30.990Z,9.88
2022-12-05T21:23:33.915Z,10.15
2022-12-05T21:28:36.126Z,8.63
2022-12-05T21:33:39.931Z,9.07
2022-12-05T21:38:42.612Z,10.20
2022-12-05T21:43:50.969Z,9.57
2022-12-05T21:48:56.484Z,9.77
2022-12-05T21:53:59.106Z,8.82
2022-12-05T21:59:01.063Z,9.00
2022-12-05T22:04:07.307Z,9.27
2022-12-05T22:09:13.888Z,9.23
2022-12-05T22:14:16.873Z,9.82
2022-12-05T22:19:18.938Z,9.10
2022-12-05T22:24:20.910Z,8.43
2022-12-05T22:29:23.182Z,8.35
2022-12-05T22:34:26.080Z,8.77
2022-12-05T22:39:28.790Z,8.30
2022-12-05T22:44:32.796Z,7.75
2022-12-05T22:49:34.747Z,7.35
2022-12-05T22:54:38.462Z,8.13
2022-12-05T22:59:40.583Z,8.50
2022-12-05T23:04:42.875Z,8.52
2022-12-05T23:09:45.356Z,8.52
2022-12-05T23:14:47.711Z,8.23
2022-12-05T23:19:49.795Z,8.13
2022-12-05T23:24:51.835Z,7.65
2022-12-05T23:29:54.172Z,7.78
2022-12-05T23:34:56.326Z,8.32
2022-12-05T23:39:59.085Z,8.30
2022-12-05T23:45:01.613Z,7.60
2022-12-05T23:50:04.135Z,7.57
2022-12-05T23:55:06.949Z,8.23
